sensor_id;sensor_type;location;lat;lon;timestamp;pressure;altitude;pressure_sealevel;temperature;humidity
66703;BME280;60933;46.398;-63.798;2023-03-21T00:00:35;101605.66;;;-1.84;64.65
66703;BME280;60933;46.398;-63.798;2023-03-21T00:03:01;101615.03;;;-1.82;62.83
66703;BME280;60933;46.398;-63.798;2023-03-21T00:05:27;101609.97;;;-1.82;61.28
66703;BME280;60933;46.398;-63.798;2023-03-21T00:07:53;101625.16;;;-1.82;64.95
66703;BME280;60933;46.398;-63.798;2023-03-21T00:10:19;101625.91;;;-1.84;62.97
66703;BME280;60933;46.398;-63.798;2023-03-21T00:12:45;101627.44;;;-1.88;64.77
66703;BME280;60933;46.398;-63.798;2023-03-21T00:15:15;101638.25;;;-1.92;65.56
66703;BME280;60933;46.398;-63.798;2023-03-21T00:17:43;101637.19;;;-1.97;66.59
66703;BME280;60933;46.398;-63.798;2023-03-21T00:20:10;101639.41;;;-2.05;65.45
66703;BME280;60933;46.398;-63.798;2023-03-21T00:22:42;101645.28;;;-2.06;64.90
66703;BME280;60933;46.398;-63.798;2023-03-21T00:25:09;101649.34;;;-2.10;64.97
66703;BME280;60933;46.398;-63.798;2023-03-21T00:27:36;101652.53;;;-2.14;64.37
66703;BME280;60933;46.398;-63.798;2023-03-21T00:30:03;101655.75;;;-2.18;64.04
66703;BME280;60933;46.398;-63.798;2023-03-21T00:32:29;101659.06;;;-2.19;64.27
66703;BME280;60933;46.398;-63.798;2023-03-21T00:34:55;101669.03;;;-2.22;66.33
66703;BME280;60933;46.398;-63.798;2023-03-21T00:37:21;101674.97;;;-2.21;65.73
66703;BME280;60933;46.398;-63.798;2023-03-21T00:39:48;101659.66;;;-2.25;64.19
66703;BME280;60933;46.398;-63.798;2023-03-21T00:42:15;101671.66;;;-2.20;65.44
66703;BME280;60933;46.398;-63.798;2023-03-21T00:44:41;101673.38;;;-2.19;63.00
66703;BME280;60933;46.398;-63.798;2023-03-21T00:47:11;101671.66;;;-2.20;64.03
66703;BME280;60933;46.398;-63.798;2023-03-21T00:49:37;101689.63;;;-2.14;62.74
66703;BME280;60933;46.398;-63.798;2023-03-21T00:52:06;101688.09;;;-2.11;61.81
66703;BME280;60933;46.398;-63.798;2023-03-21T00:54:33;101692.34;;;-2.10;62.42
66703;BME280;60933;46.398;-63.798;2023-03-21T00:56:59;101689.81;;;-2.10;62.93
66703;BME280;60933;46.398;-63.798;2023-03-21T00:59:26;101701.66;;;-2.09;62.47
66703;BME280;60933;46.398;-63.798;2023-03-21T01:01:52;101695.53;;;-2.14;63.24
66703;BME280;60933;46.398;-63.798;2023-03-21T01:04:19;101704.06;;;-2.12;64.06
66703;BME280;60933;46.398;-63.798;2023-03-21T01:06:46;101700.59;;;-2.14;60.83
66703;BME280;60933;46.398;-63.798;2023-03-21T01:09:17;101699.53;;;-2.19;63.79
66703;BME280;60933;46.398;-63.798;2023-03-21T01:11:44;101700.13;;;-2.25;65.57
66703;BME280;60933;46.398;-63.798;2023-03-21T01:14:11;101710.13;;;-2.28;65.25
66703;BME280;60933;46.398;-63.798;2023-03-21T01:16:38;101709.94;;;-2.32;64.06
66703;BME280;60933;46.398;-63.798;2023-03-21T01:19:05;101713.19;;;-2.35;64.65
66703;BME280;60933;46.398;-63.798;2023-03-21T01:21:32;101714.72;;;-2.39;63.21
66703;BME280;60933;46.398;-63.798;2023-03-21T01:23:58;101721.31;;;-2.42;64.69
66703;BME280;60933;46.398;-63.798;2023-03-21T01:26:24;101720.31;;;-2.46;60.48
66703;BME280;60933;46.398;-63.798;2023-03-21T01:28:50;101723.50;;;-2.50;62.51
66703;BME280;60933;46.398;-63.798;2023-03-21T01:31:17;101724.97;;;-2.55;65.52
66703;BME280;60933;46.398;-63.798;2023-03-21T01:33:43;101723.88;;;-2.60;62.08
66703;BME280;60933;46.398;-63.798;2023-03-21T01:36:18;101725.38;;;-2.64;59.38
66703;BME280;60933;46.398;-63.798;2023-03-21T01:38:46;101732.91;;;-2.65;61.98
66703;BME280;60933;46.398;-63.798;2023-03-21T01:41:34;101725.06;;;-2.72;61.67
66703;BME280;60933;46.398;-63.798;2023-03-21T01:44:00;101723.06;;;-2.79;64.11
66703;BME280;60933;46.398;-63.798;2023-03-21T01:46:38;101728.63;;;-2.86;62.03
66703;BME280;60933;46.398;-63.798;2023-03-21T01:51:33;101741.25;;;-2.86;63.02
66703;BME280;60933;46.398;-63.798;2023-03-21T01:54:00;101746.25;;;-2.88;64.78
66703;BME280;60933;46.398;-63.798;2023-03-21T01:56:35;101745.25;;;-2.91;63.80
66703;BME280;60933;46.398;-63.798;2023-03-21T01:59:12;101747.81;;;-2.90;64.32
66703;BME280;60933;46.398;-63.798;2023-03-21T02:01:42;101742.03;;;-2.87;63.43
66703;BME280;60933;46.398;-63.798;2023-03-21T02:04:10;101749.91;;;-2.81;65.35
66703;BME280;60933;46.398;-63.798;2023-03-21T02:06:47;101746.75;;;-2.77;64.70
66703;BME280;60933;46.398;-63.798;2023-03-21T02:09:19;101737.75;;;-2.70;62.91
66703;BME280;60933;46.398;-63.798;2023-03-21T02:11:48;101745.59;;;-2.64;64.31
66703;BME280;60933;46.398;-63.798;2023-03-21T02:14:17;101752.66;;;-2.57;64.80
66703;BME280;60933;46.398;-63.798;2023-03-21T02:17:01;101755.34;;;-2.53;65.35
66703;BME280;60933;46.398;-63.798;2023-03-21T02:28:22;101776.09;;;-2.23;64.41
66703;BME280;60933;46.398;-63.798;2023-03-21T02:36:43;101792.81;;;-1.87;62.91
66703;BME280;60933;46.398;-63.798;2023-03-21T02:41:54;101803.47;;;-1.75;64.76
66703;BME280;60933;46.398;-63.798;2023-03-21T02:47:50;101803.97;;;-1.63;65.09
66703;BME280;60933;46.398;-63.798;2023-03-21T02:50:23;101804.97;;;-1.59;64.59
66703;BME280;60933;46.398;-63.798;2023-03-21T02:52:56;101801.84;;;-1.53;65.08
66703;BME280;60933;46.398;-63.798;2023-03-21T02:55:28;101786.84;;;-1.49;64.07
66703;BME280;60933;46.398;-63.798;2023-03-21T02:57:57;101793.41;;;-1.54;64.64
66703;BME280;60933;46.398;-63.798;2023-03-21T03:00:29;101797.03;;;-1.47;64.38
66703;BME280;60933;46.398;-63.798;2023-03-21T03:02:56;101795.50;;;-1.44;63.94
66703;BME280;60933;46.398;-63.798;2023-03-21T03:05:25;101785.34;;;-1.44;64.01
66703;BME280;60933;46.398;-63.798;2023-03-21T03:07:57;101806.50;;;-1.43;64.03
66703;BME280;60933;46.398;-63.798;2023-03-21T03:13:33;101799.56;;;-1.47;62.43
66703;BME280;60933;46.398;-63.798;2023-03-21T03:18:55;101806.06;;;-1.54;66.10
66703;BME280;60933;46.398;-63.798;2023-03-21T03:21:39;101801.59;;;-1.60;64.29
66703;BME280;60933;46.398;-63.798;2023-03-21T03:24:38;101808.19;;;-1.63;65.27
66703;BME280;60933;46.398;-63.798;2023-03-21T03:27:11;101816.44;;;-1.67;65.51
66703;BME280;60933;46.398;-63.798;2023-03-21T03:29:42;101812.72;;;-1.76;64.81
66703;BME280;60933;46.398;-63.798;2023-03-21T03:32:14;101815.78;;;-1.83;66.29
66703;BME280;60933;46.398;-63.798;2023-03-21T03:34:45;101828.22;;;-1.87;67.41
66703;BME280;60933;46.398;-63.798;2023-03-21T03:37:23;101830.59;;;-1.92;65.91
66703;BME280;60933;46.398;-63.798;2023-03-21T03:40:04;101832.91;;;-1.97;66.73
66703;BME280;60933;46.398;-63.798;2023-03-21T03:43:00;101840.94;;;-2.05;67.82
66703;BME280;60933;46.398;-63.798;2023-03-21T03:45:33;101835.63;;;-2.12;68.39
66703;BME280;60933;46.398;-63.798;2023-03-21T03:48:34;101838.81;;;-2.16;67.84
66703;BME280;60933;46.398;-63.798;2023-03-21T03:51:07;101842.88;;;-2.19;67.68
66703;BME280;60933;46.398;-63.798;2023-03-21T03:53:45;101847.06;;;-2.20;66.70
66703;BME280;60933;46.398;-63.798;2023-03-21T03:56:12;101845.19;;;-2.24;67.45
66703;BME280;60933;46.398;-63.798;2023-03-21T03:58:39;101853.69;;;-2.22;67.61
66703;BME280;60933;46.398;-63.798;2023-03-21T04:01:06;101841.66;;;-2.28;67.84
66703;BME280;60933;46.398;-63.798;2023-03-21T04:03:38;101842.50;;;-2.27;68.26
66703;BME280;60933;46.398;-63.798;2023-03-21T04:06:05;101855.16;;;-2.27;67.61
66703;BME280;60933;46.398;-63.798;2023-03-21T04:08:31;101854.22;;;-2.29;68.49
66703;BME280;60933;46.398;-63.798;2023-03-21T04:10:56;101854.94;;;-2.32;69.63
66703;BME280;60933;46.398;-63.798;2023-03-21T04:13:23;101850.34;;;-2.41;68.32
66703;BME280;60933;46.398;-63.798;2023-03-21T04:15:50;101858.72;;;-2.42;68.41
66703;BME280;60933;46.398;-63.798;2023-03-21T04:18:16;101854.25;;;-2.47;68.33
66703;BME280;60933;46.398;-63.798;2023-03-21T04:20:49;101851.38;;;-2.55;67.95
66703;BME280;60933;46.398;-63.798;2023-03-21T04:23:22;101869.69;;;-2.59;68.06
66703;BME280;60933;46.398;-63.798;2023-03-21T04:25:48;101843.63;;;-2.76;69.62
66703;BME280;60933;46.398;-63.798;2023-03-21T04:28:15;101862.50;;;-2.69;70.13
66703;BME280;60933;46.398;-63.798;2023-03-21T04:30:41;101863.13;;;-2.74;69.89
66703;BME280;60933;46.398;-63.798;2023-03-21T04:33:07;101860.31;;;-2.80;69.54
66703;BME280;60933;46.398;-63.798;2023-03-21T04:35:33;101872.00;;;-2.82;69.93
66703;BME280;60933;46.398;-63.798;2023-03-21T04:38:01;101865.06;;;-2.86;70.08
66703;BME280;60933;46.398;-63.798;2023-03-21T04:40:27;101865.88;;;-2.87;70.32
66703;BME280;60933;46.398;-63.798;2023-03-21T04:42:53;101865.69;;;-2.90;69.97
66703;BME280;60933;46.398;-63.798;2023-03-21T04:45:19;101861.38;;;-2.93;70.74
66703;BME280;60933;46.398;-63.798;2023-03-21T04:47:45;101868.22;;;-2.90;70.64
66703;BME280;60933;46.398;-63.798;2023-03-21T04:50:12;101881.69;;;-2.91;70.56
66703;BME280;60933;46.398;-63.798;2023-03-21T04:52:38;101864.63;;;-2.95;70.81
66703;BME280;60933;46.398;-63.798;2023-03-21T04:55:05;101879.78;;;-2.95;70.74
66703;BME280;60933;46.398;-63.798;2023-03-21T04:57:36;101881.28;;;-2.99;70.64
66703;BME280;60933;46.398;-63.798;2023-03-21T05:00:05;101883.53;;;-3.05;71.24
66703;BME280;60933;46.398;-63.798;2023-03-21T05:02:50;101892.75;;;-3.06;71.07
66703;BME280;60933;46.398;-63.798;2023-03-21T05:05:16;101892.63;;;-3.09;71.28
66703;BME280;60933;46.398;-63.798;2023-03-21T05:07:42;101888.28;;;-3.11;71.21
66703;BME280;60933;46.398;-63.798;2023-03-21T05:10:09;101888.13;;;-3.14;72.47
66703;BME280;60933;46.398;-63.798;2023-03-21T05:12:36;101897.19;;;-3.18;72.34
66703;BME280;60933;46.398;-63.798;2023-03-21T05:15:03;101889.38;;;-3.23;72.68
66703;BME280;60933;46.398;-63.798;2023-03-21T05:17:30;101886.63;;;-3.27;73.03
66703;BME280;60933;46.398;-63.798;2023-03-21T05:19:56;101893.97;;;-3.32;72.91
66703;BME280;60933;46.398;-63.798;2023-03-21T05:22:23;101897.16;;;-3.36;73.08
66703;BME280;60933;46.398;-63.798;2023-03-21T05:24:51;101891.00;;;-3.41;73.14
66703;BME280;60933;46.398;-63.798;2023-03-21T05:27:21;101903.38;;;-3.46;73.17
66703;BME280;60933;46.398;-63.798;2023-03-21T05:30:06;101903.16;;;-3.51;73.02
66703;BME280;60933;46.398;-63.798;2023-03-21T05:32:33;101914.81;;;-3.53;71.82
66703;BME280;60933;46.398;-63.798;2023-03-21T05:34:59;101911.25;;;-3.56;71.98
66703;BME280;60933;46.398;-63.798;2023-03-21T05:37:26;101922.94;;;-3.58;71.70
66703;BME280;60933;46.398;-63.798;2023-03-21T05:39:52;101927.06;;;-3.60;71.03
66703;BME280;60933;46.398;-63.798;2023-03-21T05:42:18;101927.66;;;-3.64;70.67
66703;BME280;60933;46.398;-63.798;2023-03-21T05:44:44;101924.91;;;-3.69;69.39
66703;BME280;60933;46.398;-63.798;2023-03-21T05:47:12;101929.69;;;-3.74;69.69
66703;BME280;60933;46.398;-63.798;2023-03-21T05:49:38;101931.13;;;-3.79;69.97
66703;BME280;60933;46.398;-63.798;2023-03-21T05:52:05;101924.00;;;-3.86;69.69
66703;BME280;60933;46.398;-63.798;2023-03-21T05:54:31;101933.94;;;-3.89;70.85
66703;BME280;60933;46.398;-63.798;2023-03-21T05:56:57;101935.34;;;-3.94;71.98
66703;BME280;60933;46.398;-63.798;2023-03-21T05:59:23;101938.50;;;-3.99;71.70
66703;BME280;60933;46.398;-63.798;2023-03-21T06:01:49;101931.59;;;-4.01;69.91
66703;BME280;60933;46.398;-63.798;2023-03-21T06:04:15;101936.59;;;-4.03;71.08
66703;BME280;60933;46.398;-63.798;2023-03-21T06:06:40;101939.28;;;-4.00;71.09
66703;BME280;60933;46.398;-63.798;2023-03-21T06:09:07;101927.53;;;-3.99;71.36
66703;BME280;60933;46.398;-63.798;2023-03-21T06:11:37;101934.13;;;-4.01;73.09
66703;BME280;60933;46.398;-63.798;2023-03-21T06:14:03;101941.69;;;-4.01;73.14
66703;BME280;60933;46.398;-63.798;2023-03-21T06:16:29;101939.09;;;-4.03;72.95
66703;BME280;60933;46.398;-63.798;2023-03-21T06:18:57;101946.59;;;-4.04;72.33
66703;BME280;60933;46.398;-63.798;2023-03-21T06:21:23;101949.00;;;-4.06;72.30
66703;BME280;60933;46.398;-63.798;2023-03-21T06:23:49;101946.34;;;-4.09;71.36
66703;BME280;60933;46.398;-63.798;2023-03-21T06:26:19;101946.28;;;-4.10;71.14
66703;BME280;60933;46.398;-63.798;2023-03-21T06:28:51;101955.41;;;-4.13;69.56
66703;BME280;60933;46.398;-63.798;2023-03-21T06:31:18;101950.94;;;-4.17;71.17
66703;BME280;60933;46.398;-63.798;2023-03-21T06:33:47;101959.41;;;-4.16;71.77
66703;BME280;60933;46.398;-63.798;2023-03-21T06:36:14;101954.97;;;-4.20;71.14
66703;BME280;60933;46.398;-63.798;2023-03-21T06:38:40;101951.31;;;-4.25;71.76
66703;BME280;60933;46.398;-63.798;2023-03-21T06:41:06;101942.53;;;-4.32;71.11
66703;BME280;60933;46.398;-63.798;2023-03-21T06:43:33;101950.03;;;-4.34;71.24
66703;BME280;60933;46.398;-63.798;2023-03-21T06:45:59;101954.03;;;-4.37;72.60
66703;BME280;60933;46.398;-63.798;2023-03-21T06:48:26;101966.38;;;-4.42;71.97
66703;BME280;60933;46.398;-63.798;2023-03-21T06:50:53;101950.47;;;-4.56;71.21
66703;BME280;60933;46.398;-63.798;2023-03-21T06:53:21;101967.19;;;-4.58;69.54
66703;BME280;60933;46.398;-63.798;2023-03-21T06:55:53;101970.22;;;-4.64;69.78
66703;BME280;60933;46.398;-63.798;2023-03-21T06:58:19;101970.66;;;-4.71;70.25
66703;BME280;60933;46.398;-63.798;2023-03-21T07:00:46;101976.81;;;-4.81;69.81
66703;BME280;60933;46.398;-63.798;2023-03-21T07:03:12;101983.41;;;-4.83;70.13
66703;BME280;60933;46.398;-63.798;2023-03-21T07:05:39;101979.84;;;-4.86;70.76
66703;BME280;60933;46.398;-63.798;2023-03-21T07:08:06;101984.69;;;-4.89;70.29
66703;BME280;60933;46.398;-63.798;2023-03-21T07:10:39;101986.84;;;-4.96;70.32
66703;BME280;60933;46.398;-63.798;2023-03-21T07:13:06;101995.19;;;-4.97;71.86
66703;BME280;60933;46.398;-63.798;2023-03-21T07:15:32;102002.47;;;-5.01;71.55
66703;BME280;60933;46.398;-63.798;2023-03-21T07:18:03;101997.84;;;-5.09;71.98
66703;BME280;60933;46.398;-63.798;2023-03-21T07:20:29;102007.81;;;-5.10;71.60
66703;BME280;60933;46.398;-63.798;2023-03-21T07:22:56;101999.13;;;-5.15;72.81
66703;BME280;60933;46.398;-63.798;2023-03-21T07:25:22;102005.53;;;-5.20;70.83
66703;BME280;60933;46.398;-63.798;2023-03-21T07:27:48;102006.13;;;-5.25;71.49
66703;BME280;60933;46.398;-63.798;2023-03-21T07:30:14;102013.41;;;-5.29;71.72
66703;BME280;60933;46.398;-63.798;2023-03-21T07:32:41;102005.56;;;-5.34;71.16
66703;BME280;60933;46.398;-63.798;2023-03-21T07:35:11;102004.44;;;-5.39;71.17
66703;BME280;60933;46.398;-63.798;2023-03-21T07:37:38;102006.59;;;-5.45;70.62
66703;BME280;60933;46.398;-63.798;2023-03-21T07:40:05;102007.94;;;-5.50;70.03
66703;BME280;60933;46.398;-63.798;2023-03-21T07:42:40;102016.84;;;-5.56;69.15
66703;BME280;60933;46.398;-63.798;2023-03-21T07:45:08;102017.47;;;-5.60;68.96
66703;BME280;60933;46.398;-63.798;2023-03-21T07:47:34;102020.84;;;-5.59;70.88
66703;BME280;60933;46.398;-63.798;2023-03-21T07:50:01;102026.72;;;-5.59;69.25
66703;BME280;60933;46.398;-63.798;2023-03-21T07:52:29;102031.66;;;-5.60;69.16
66703;BME280;60933;46.398;-63.798;2023-03-21T07:54:54;102033.13;;;-5.64;70.16
66703;BME280;60933;46.398;-63.798;2023-03-21T07:57:20;102038.94;;;-5.65;68.88
66703;BME280;60933;46.398;-63.798;2023-03-21T07:59:46;102037.38;;;-5.63;68.99
66703;BME280;60933;46.398;-63.798;2023-03-21T08:02:14;102043.69;;;-5.56;71.59
66703;BME280;60933;46.398;-63.798;2023-03-21T08:04:40;102048.31;;;-5.49;72.61
66703;BME280;60933;46.398;-63.798;2023-03-21T08:07:06;102054.28;;;-5.47;72.06
66703;BME280;60933;46.398;-63.798;2023-03-21T08:09:33;102055.25;;;-5.45;71.69
66703;BME280;60933;46.398;-63.798;2023-03-21T08:11:59;102051.13;;;-5.44;72.17
66703;BME280;60933;46.398;-63.798;2023-03-21T08:14:25;102045.69;;;-5.50;70.05
66703;BME280;60933;46.398;-63.798;2023-03-21T08:16:51;102053.81;;;-5.54;71.48
66703;BME280;60933;46.398;-63.798;2023-03-21T08:19:17;102050.34;;;-5.57;70.72
66703;BME280;60933;46.398;-63.798;2023-03-21T08:21:45;102046.06;;;-5.58;72.51
66703;BME280;60933;46.398;-63.798;2023-03-21T08:24:11;102054.50;;;-5.57;72.15
66703;BME280;60933;46.398;-63.798;2023-03-21T08:26:37;102053.44;;;-5.61;72.21
66703;BME280;60933;46.398;-63.798;2023-03-21T08:29:03;102064.84;;;-5.66;71.93
66703;BME280;60933;46.398;-63.798;2023-03-21T08:31:29;102059.66;;;-5.69;70.53
66703;BME280;60933;46.398;-63.798;2023-03-21T08:33:58;102066.00;;;-5.74;70.74
66703;BME280;60933;46.398;-63.798;2023-03-21T08:36:24;102063.25;;;-5.79;69.90
66703;BME280;60933;46.398;-63.798;2023-03-21T08:38:50;102068.91;;;-5.81;70.18
66703;BME280;60933;46.398;-63.798;2023-03-21T08:41:22;102082.09;;;-5.85;69.05
66703;BME280;60933;46.398;-63.798;2023-03-21T08:43:49;102090.31;;;-5.88;68.09
66703;BME280;60933;46.398;-63.798;2023-03-21T08:46:15;102087.50;;;-5.93;69.81
66703;BME280;60933;46.398;-63.798;2023-03-21T08:48:41;102087.19;;;-5.97;68.68
66703;BME280;60933;46.398;-63.798;2023-03-21T08:51:07;102094.69;;;-5.99;66.34
66703;BME280;60933;46.398;-63.798;2023-03-21T08:53:33;102107.06;;;-6.02;66.62
66703;BME280;60933;46.398;-63.798;2023-03-21T08:55:59;102105.22;;;-6.05;67.59
66703;BME280;60933;46.398;-63.798;2023-03-21T08:58:25;102110.16;;;-6.06;68.99
66703;BME280;60933;46.398;-63.798;2023-03-21T09:00:51;102117.88;;;-6.03;71.44
66703;BME280;60933;46.398;-63.798;2023-03-21T09:03:17;102116.34;;;-6.01;72.69
66703;BME280;60933;46.398;-63.798;2023-03-21T09:05:44;102119.63;;;-6.02;70.94
66703;BME280;60933;46.398;-63.798;2023-03-21T09:08:11;102114.81;;;-5.99;72.08
66703;BME280;60933;46.398;-63.798;2023-03-21T09:10:38;102105.31;;;-6.03;71.87
66703;BME280;60933;46.398;-63.798;2023-03-21T09:13:03;102119.84;;;-5.99;72.17
66703;BME280;60933;46.398;-63.798;2023-03-21T09:15:30;102129.00;;;-5.99;70.43
66703;BME280;60933;46.398;-63.798;2023-03-21T09:17:57;102138.34;;;-5.97;72.19
66703;BME280;60933;46.398;-63.798;2023-03-21T09:20:37;102138.19;;;-6.00;73.84
66703;BME280;60933;46.398;-63.798;2023-03-21T09:23:05;102146.59;;;-5.99;73.93
66703;BME280;60933;46.398;-63.798;2023-03-21T09:25:31;102144.19;;;-5.98;74.64
66703;BME280;60933;46.398;-63.798;2023-03-21T09:28:01;102153.44;;;-5.97;73.57
66703;BME280;60933;46.398;-63.798;2023-03-21T09:30:34;102151.72;;;-5.98;73.45
66703;BME280;60933;46.398;-63.798;2023-03-21T09:33:02;102153.44;;;-5.97;73.41
66703;BME280;60933;46.398;-63.798;2023-03-21T09:35:31;102156.94;;;-5.95;73.44
66703;BME280;60933;46.398;-63.798;2023-03-21T09:37:57;102160.22;;;-5.96;74.27
66703;BME280;60933;46.398;-63.798;2023-03-21T09:44:02;102173.00;;;-5.93;73.50
66703;BME280;60933;46.398;-63.798;2023-03-21T09:46:47;102175.69;;;-5.90;74.67
66703;BME280;60933;46.398;-63.798;2023-03-21T09:49:17;102179.97;;;-5.89;73.69
66703;BME280;60933;46.398;-63.798;2023-03-21T09:51:48;102176.13;;;-5.83;73.70
66703;BME280;60933;46.398;-63.798;2023-03-21T09:54:21;102183.09;;;-5.79;74.94
66703;BME280;60933;46.398;-63.798;2023-03-21T09:56:51;102192.38;;;-5.78;76.28
66703;BME280;60933;46.398;-63.798;2023-03-21T09:59:28;102188.13;;;-5.79;74.80
66703;BME280;60933;46.398;-63.798;2023-03-21T10:01:57;102192.38;;;-5.78;73.16
66703;BME280;60933;46.398;-63.798;2023-03-21T10:04:25;102199.16;;;-5.77;73.52
66703;BME280;60933;46.398;-63.798;2023-03-21T10:07:01;102191.41;;;-5.80;73.20
66703;BME280;60933;46.398;-63.798;2023-03-21T10:09:29;102199.91;;;-5.78;73.33
66703;BME280;60933;46.398;-63.798;2023-03-21T10:12:11;102210.84;;;-5.78;74.22
66703;BME280;60933;46.398;-63.798;2023-03-21T10:14:50;102209.22;;;-5.77;72.31
66703;BME280;60933;46.398;-63.798;2023-03-21T10:17:39;102217.94;;;-5.72;74.54
66703;BME280;60933;46.398;-63.798;2023-03-21T10:20:21;102216.19;;;-5.73;74.77
66703;BME280;60933;46.398;-63.798;2023-03-21T10:22:50;102227.44;;;-5.68;74.21
66703;BME280;60933;46.398;-63.798;2023-03-21T10:25:38;102236.81;;;-5.65;74.11
66703;BME280;60933;46.398;-63.798;2023-03-21T10:28:06;102241.38;;;-5.60;74.08
66703;BME280;60933;46.398;-63.798;2023-03-21T10:30:54;102244.75;;;-5.59;74.54
66703;BME280;60933;46.398;-63.798;2023-03-21T10:33:34;102254.38;;;-5.53;74.35
66703;BME280;60933;46.398;-63.798;2023-03-21T10:36:05;102252.25;;;-5.47;75.28
66703;BME280;60933;46.398;-63.798;2023-03-21T10:38:32;102257.66;;;-5.41;75.61
66703;BME280;60933;46.398;-63.798;2023-03-21T10:40:59;102258.66;;;-5.39;77.00
66703;BME280;60933;46.398;-63.798;2023-03-21T10:45:52;102267.94;;;-5.38;77.71
66703;BME280;60933;46.398;-63.798;2023-03-21T10:48:19;102267.28;;;-5.35;78.38
66703;BME280;60933;46.398;-63.798;2023-03-21T10:50:48;102267.44;;;-5.32;78.39
66703;BME280;60933;46.398;-63.798;2023-03-21T10:53:21;102274.22;;;-5.31;78.39
66703;BME280;60933;46.398;-63.798;2023-03-21T10:55:51;102271.94;;;-5.28;78.40
66703;BME280;60933;46.398;-63.798;2023-03-21T10:58:26;102268.81;;;-5.24;78.77
66703;BME280;60933;46.398;-63.798;2023-03-21T11:00:55;102269.13;;;-5.19;79.07
66703;BME280;60933;46.398;-63.798;2023-03-21T11:03:38;102267.66;;;-5.16;78.74
66703;BME280;60933;46.398;-63.798;2023-03-21T11:08:53;102266.63;;;-5.06;78.66
66703;BME280;60933;46.398;-63.798;2023-03-21T11:11:25;102265.34;;;-4.99;78.72
66703;BME280;60933;46.398;-63.798;2023-03-21T11:13:58;102271.53;;;-4.94;78.94
66703;BME280;60933;46.398;-63.798;2023-03-21T11:16:30;102271.84;;;-4.89;78.10
66703;BME280;60933;46.398;-63.798;2023-03-21T11:19:10;102271.44;;;-4.82;77.45
66703;BME280;60933;46.398;-63.798;2023-03-21T11:21:37;102278.72;;;-4.73;77.85
66703;BME280;60933;46.398;-63.798;2023-03-21T11:24:04;102281.81;;;-4.64;77.94
66703;BME280;60933;46.398;-63.798;2023-03-21T11:26:35;102287.53;;;-4.53;77.62
66703;BME280;60933;46.398;-63.798;2023-03-21T11:29:25;102286.44;;;-4.43;77.82
66703;BME280;60933;46.398;-63.798;2023-03-21T11:31:52;102291.38;;;-4.32;77.21
66703;BME280;60933;46.398;-63.798;2023-03-21T11:34:38;102296.28;;;-4.20;76.66
66703;BME280;60933;46.398;-63.798;2023-03-21T11:37:18;102291.19;;;-4.06;76.01
66703;BME280;60933;46.398;-63.798;2023-03-21T11:39:44;102288.53;;;-3.94;75.48
66703;BME280;60933;46.398;-63.798;2023-03-21T11:42:30;102280.91;;;-3.81;74.97
66703;BME280;60933;46.398;-63.798;2023-03-21T11:45:06;102285.88;;;-3.68;73.87
66703;BME280;60933;46.398;-63.798;2023-03-21T11:47:35;102283.31;;;-3.54;73.91
66703;BME280;60933;46.398;-63.798;2023-03-21T11:50:01;102273.47;;;-3.50;72.67
66703;BME280;60933;46.398;-63.798;2023-03-21T11:55:51;102284.00;;;-3.12;71.74
66703;BME280;60933;46.398;-63.798;2023-03-21T12:06:45;102275.69;;;-2.48;67.63
66703;BME280;60933;46.398;-63.798;2023-03-21T12:09:25;102274.81;;;-2.32;67.23
66703;BME280;60933;46.398;-63.798;2023-03-21T12:12:05;102271.28;;;-2.19;66.87
66703;BME280;60933;46.398;-63.798;2023-03-21T12:17:23;102272.00;;;-1.88;66.53
66703;BME280;60933;46.398;-63.798;2023-03-21T12:22:34;102274.66;;;-1.69;65.95
66703;BME280;60933;46.398;-63.798;2023-03-21T12:30:59;102279.44;;;-1.40;62.95
66703;BME280;60933;46.398;-63.798;2023-03-21T12:33:42;102277.28;;;-1.33;61.78
66703;BME280;60933;46.398;-63.798;2023-03-21T12:44:57;102290.00;;;-0.97;60.30
66703;BME280;60933;46.398;-63.798;2023-03-21T12:47:27;102297.22;;;-0.86;60.03
66703;BME280;60933;46.398;-63.798;2023-03-21T12:50:04;102302.75;;;-0.77;59.85
66703;BME280;60933;46.398;-63.798;2023-03-21T12:52:39;102300.56;;;-0.69;58.93
66703;BME280;60933;46.398;-63.798;2023-03-21T12:55:15;102316.34;;;-0.57;58.58
66703;BME280;60933;46.398;-63.798;2023-03-21T12:57:49;102310.19;;;-0.44;58.39
66703;BME280;60933;46.398;-63.798;2023-03-21T13:03:21;102315.09;;;-0.09;58.20
66703;BME280;60933;46.398;-63.798;2023-03-21T13:05:58;102309.06;;;0.08;60.54
66703;BME280;60933;46.398;-63.798;2023-03-21T13:11:48;102312.56;;;0.30;56.99
66703;BME280;60933;46.398;-63.798;2023-03-21T13:14:27;102301.78;;;0.36;56.39
66703;BME280;60933;46.398;-63.798;2023-03-21T13:17:22;102305.72;;;0.49;56.49
66703;BME280;60933;46.398;-63.798;2023-03-21T13:19:57;102312.31;;;0.65;55.35
66703;BME280;60933;46.398;-63.798;2023-03-21T13:22:30;102307.72;;;0.77;57.58
66703;BME280;60933;46.398;-63.798;2023-03-21T13:25:01;102316.91;;;0.94;59.46
66703;BME280;60933;46.398;-63.798;2023-03-21T13:27:30;102321.63;;;1.06;60.42
66703;BME280;60933;46.398;-63.798;2023-03-21T13:30:05;102313.28;;;1.10;61.25
66703;BME280;60933;46.398;-63.798;2023-03-21T13:32:37;102314.28;;;1.14;61.07
66703;BME280;60933;46.398;-63.798;2023-03-21T13:35:24;102317.38;;;1.28;61.31
66703;BME280;60933;46.398;-63.798;2023-03-21T13:38:05;102306.91;;;1.43;60.63
66703;BME280;60933;46.398;-63.798;2023-03-21T13:40:40;102313.34;;;1.56;60.16
66703;BME280;60933;46.398;-63.798;2023-03-21T13:46:13;102319.44;;;1.61;60.72
66703;BME280;60933;46.398;-63.798;2023-03-21T13:51:40;102320.72;;;1.72;61.24
66703;BME280;60933;46.398;-63.798;2023-03-21T13:57:05;102327.03;;;1.82;60.82
66703;BME280;60933;46.398;-63.798;2023-03-21T14:04:43;102318.50;;;2.29;60.35
66703;BME280;60933;46.398;-63.798;2023-03-21T14:07:24;102318.22;;;2.45;60.18
66703;BME280;60933;46.398;-63.798;2023-03-21T14:10:00;102309.84;;;2.49;60.01
66703;BME280;60933;46.398;-63.798;2023-03-21T14:12:37;102312.53;;;2.54;59.51
66703;BME280;60933;46.398;-63.798;2023-03-21T14:15:23;102308.41;;;2.58;59.59